createdAt,value
2023-03-07T00:03:58.990Z,-2.34
2023-03-07T00:13:59.151Z,-2.34
2023-03-07T00:23:59.197Z,-2.34
2023-03-07T00:33:59.538Z,-2.34
2023-03-07T00:43:59.587Z,-2.34
2023-03-07T00:53:59.896Z,-3.10
2023-03-07T01:03:59.946Z,-3.10
2023-03-07T01:14:00.287Z,-2.14
2023-03-07T01:24:00.319Z,-1.94
2023-03-07T01:34:00.643Z,-1.75
2023-03-07T01:44:00.671Z,-2.14
2023-03-07T01:54:01.005Z,-2.52
2023-03-07T02:04:01.067Z,-2.52
2023-03-07T02:14:01.220Z,-2.71
2023-03-07T02:24:01.258Z,-2.15
2023-03-07T02:34:01.555Z,-2.15
2023-03-07T02:44:01.595Z,-2.15
2023-03-07T02:54:02.111Z,-1.97
2023-03-07T03:04:01.950Z,-1.79
2023-03-07T03:14:02.281Z,-2.94
2023-03-07T03:24:02.352Z,-2.41
2023-03-07T03:34:02.658Z,-2.24
2023-03-07T03:44:02.689Z,-2.41
2023-03-07T03:54:03.031Z,-2.58
2023-03-07T04:04:03.098Z,-2.58
2023-03-07T04:14:03.405Z,-2.41
2023-03-07T04:24:03.477Z,-3.04
2023-03-07T04:34:03.789Z,-2.87
2023-03-07T04:44:03.943Z,-3.04
2023-03-07T04:54:04.051Z,-3.04
2023-03-07T05:04:04.162Z,-3.04
2023-03-07T05:14:04.313Z,-2.87
2023-03-07T05:24:04.341Z,-2.87
2023-03-07T05:34:04.763Z,-3.04
2023-03-07T05:44:04.748Z,-3.04
2023-03-07T05:54:04.837Z,-2.07
2023-03-07T06:04:04.885Z,-2.24
2023-03-07T06:14:05.209Z,-2.41
2023-03-07T06:24:05.248Z,-2.24
2023-03-07T06:34:07.525Z,-2.24
2023-03-07T06:44:05.635Z,-2.41
2023-03-07T06:54:05.964Z,-2.41
2023-03-07T07:04:06.012Z,-1.61
2023-03-07T07:14:06.322Z,-1.61
2023-03-07T07:24:06.345Z,-1.61
2023-03-07T07:34:06.800Z,-1.79
2023-03-07T07:44:06.675Z,-1.19
2023-03-07T07:54:06.985Z,-1.19
2023-03-07T08:04:07.008Z,-1.19
2023-03-07T08:14:08.252Z,-1.19
2023-03-07T08:24:07.475Z,-0.41
2023-03-07T08:34:07.817Z,-0.79
2023-03-07T08:44:07.842Z,-0.79
2023-03-07T08:54:08.299Z,-0.22
2023-03-07T09:04:08.318Z,-1.04
2023-03-07T09:14:08.645Z,-1.04
2023-03-07T09:24:08.699Z,-0.74
2023-03-07T09:34:09.013Z,-0.24
2023-03-07T09:44:09.053Z,-0.95
2023-03-07T09:54:09.401Z,-0.50
2023-03-07T10:04:09.464Z,-0.34
2023-03-07T10:14:09.766Z,0.18
2023-03-07T10:24:09.797Z,-0.61
2023-03-07T10:34:13.615Z,-0.34
2023-03-07T10:44:11.194Z,0.04
2023-03-07T10:54:10.433Z,0.04
2023-03-07T11:04:10.452Z,0.68
2023-03-07T11:14:12.263Z,0.04
2023-03-07T11:24:10.861Z,0.68
2023-03-07T11:34:11.128Z,0.40
2023-03-07T11:44:11.362Z,0.68
2023-03-07T11:54:11.720Z,1.02
2023-03-07T12:04:11.743Z,1.02
2023-03-07T12:14:12.107Z,0.40
2023-03-07T12:24:12.134Z,3.48
2023-03-07T12:34:12.455Z,0.11
2023-03-07T12:44:12.488Z,0.11
2023-03-07T12:54:12.827Z,0.11
2023-03-07T13:04:12.930Z,0.11
2023-03-07T13:14:13.103Z,0.11
2023-03-07T13:24:13.133Z,0.72
2023-03-07T13:34:13.552Z,0.11
2023-03-07T13:44:13.581Z,0.11
2023-03-07T13:54:13.938Z,0.72
2023-03-07T14:04:13.954Z,0.72
2023-03-07T14:14:15.616Z,-0.19
2023-03-07T14:24:14.385Z,0.72
2023-03-07T14:34:15.701Z,0.11
2023-03-07T14:44:14.738Z,0.68
2023-03-07T14:54:15.158Z,2.23
2023-03-07T15:04:15.240Z,1.02
2023-03-07T15:14:15.434Z,2.23
2023-03-07T15:24:15.500Z,2.23
2023-03-07T15:34:17.821Z,0.42
2023-03-07T15:44:17.179Z,-1.16
2023-03-07T15:54:16.581Z,-0.61
2023-03-07T16:04:16.225Z,-0.34
2023-03-07T16:14:16.533Z,-1.01
2023-03-07T16:24:16.570Z,-1.27
2023-03-07T16:34:16.890Z,-0.75
2023-03-07T16:44:17.183Z,-1.01
2023-03-07T16:54:17.334Z,-1.44
2023-03-07T17:04:17.211Z,-1.19
2023-03-07T17:14:17.559Z,-1.19
2023-03-07T17:24:17.664Z,-0.95
2023-03-07T17:34:17.983Z,-0.95
2023-03-07T17:44:19.003Z,-0.71
2023-03-07T17:54:18.411Z,-1.65
2023-03-07T18:04:18.332Z,-0.96
2023-03-07T18:14:23.519Z,-1.42
2023-03-07T18:24:19.144Z,-0.96
2023-03-07T18:34:19.051Z,-1.19
2023-03-07T18:44:19.167Z,-0.96
2023-03-07T18:54:19.338Z,-0.96
2023-03-07T19:04:19.611Z,-0.74
2023-03-07T19:14:19.932Z,-0.96
2023-03-07T19:24:19.923Z,-0.74
2023-03-07T19:34:24.403Z,-0.96
2023-03-07T19:44:20.193Z,-0.96
2023-03-07T19:54:20.368Z,-0.74
2023-03-07T20:04:20.561Z,-0.74
2023-03-07T20:14:20.863Z,-0.96
2023-03-07T20:24:25.454Z,-1.68
2023-03-07T20:34:22.544Z,-1.25
2023-03-07T20:44:25.438Z,-1.25
2023-03-07T20:54:22.150Z,-1.25
2023-03-07T21:04:22.838Z,-1.47
2023-03-07T21:14:21.630Z,-1.25
2023-03-07T21:24:21.944Z,-1.47
2023-03-07T21:34:21.909Z,-1.47
2023-03-07T21:44:22.066Z,-1.47
2023-03-07T21:54:21.945Z,-1.25
2023-03-07T22:04:24.453Z,-1.04
2023-03-07T22:14:22.319Z,-1.25
2023-03-07T22:24:23.318Z,-1.25
2023-03-07T22:34:22.785Z,-1.25
2023-03-07T22:44:23.852Z,-1.25
2023-03-07T22:54:23.078Z,-1.25
2023-03-07T23:04:23.265Z,-0.83
2023-03-07T23:14:23.317Z,-0.83
2023-03-07T23:24:23.672Z,-1.04
2023-03-07T23:34:23.735Z,-0.83
2023-03-07T23:44:24.060Z,-0.83
2023-03-07T23:54:24.102Z,-1.04
